Time;durP1;ratioP1;P1;durP2;ratioP2;P2;SDS_P1;SDS_P2;PMS_P1;PMS_P2;Temp;Humidity;BMP_temperature;BMP_pressure;BME280_temperature;BME280_humidity;BME280_pressure;Samples;Min_cycle;Max_cycle;Signal;HPM_P1;HPM_P2
2022/12/22 03:27:20;;;;;;;4.78;4.38;;;;;;;;;;5303856;28;20370;-70
2022/12/22 03:29:51;;;;;;;3.80;3.47;;;;;;;;;;5302681;28;20023;-69
2022/12/22 03:32:22;;;;;;;4.40;4.10;;;;;;;;;;5302805;28;20058;-69
2022/12/22 03:34:53;;;;;;;81.40;6.57;;;;;;;;;;5303300;28;20078;-69
2022/12/22 03:37:24;;;;;;;94.65;5.50;;;;;;;;;;5302779;28;20464;-69
2022/12/22 03:39:56;;;;;;;12.35;4.07;;;;;;;;;;5303246;28;20023;-69
2022/12/22 03:48:06;;;;;;;37.50;3.60;;;;;;;;;;5303449;28;20032;-69
2022/12/22 03:50:38;;;;;;;163.45;8.63;;;;;;;;;;5302491;28;20017;-68
2022/12/22 03:53:09;;;;;;;194.85;11.02;;;;;;;;;;5303179;28;20110;-68
2022/12/22 03:55:40;;;;;;;3.50;3.17;;;;;;;;;;5302700;28;20475;-69
2022/12/22 03:58:11;;;;;;;3.53;3.25;;;;;;;;;;5302579;28;20395;-68
2022/12/22 04:00:42;;;;;;;15.34;3.66;;;;;;;;;;5302793;28;20008;-69
2022/12/22 04:03:14;;;;;;;47.60;5.90;;;;;;;;;;5302706;28;20012;-69
2022/12/22 04:05:45;;;;;;;28.52;5.28;;;;;;;;;;5302601;28;20012;-69
2022/12/22 04:08:16;;;;;;;4.88;4.47;;;;;;;;;;5303095;28;20020;-68
2022/12/22 04:13:37;;;;;;;4.07;3.78;;;;;;;;;;5302740;28;20032;-68
2022/12/22 04:16:09;;;;;;;4.28;3.97;;;;;;;;;;5302830;28;20020;-69
2022/12/22 04:18:40;;;;;;;4.63;4.22;;;;;;;;;;5301565;28;20070;-68
2022/12/22 04:21:11;;;;;;;4.93;4.53;;;;;;;;;;5303152;28;20099;-68
2022/12/22 04:23:42;;;;;;;4.82;4.53;;;;;;;;;;5302309;28;20016;-69
2022/12/22 04:26:14;;;;;;;4.57;4.18;;;;;;;;;;5302332;28;20517;-69
2022/12/22 04:28:45;;;;;;;5.60;5.20;;;;;;;;;;5302313;28;20024;-69
2022/12/22 04:31:16;;;;;;;4.43;4.13;;;;;;;;;;5302794;28;20027;-69
2022/12/22 04:33:48;;;;;;;3.10;2.90;;;;;;;;;;5301656;28;20022;-69
2022/12/22 04:36:19;;;;;;;3.85;3.55;;;;;;;;;;5302959;28;20020;-69
2022/12/22 04:38:50;;;;;;;3.90;3.60;;;;;;;;;;5301324;28;20035;-69
2022/12/22 04:41:21;;;;;;;3.40;3.10;;;;;;;;;;5302501;28;20484;-69
2022/12/22 04:43:52;;;;;;;3.90;3.60;;;;;;;;;;5302096;28;20028;-69
2022/12/22 04:46:24;;;;;;;3.78;3.47;;;;;;;;;;5305312;28;20012;-68
2022/12/22 04:48:55;;;;;;;3.80;3.50;;;;;;;;;;5306819;28;20421;-69
2022/12/22 04:51:27;;;;;;;4.57;4.28;;;;;;;;;;5306664;28;20024;-69
2022/12/22 04:53:58;;;;;;;4.28;3.88;;;;;;;;;;5305891;28;20430;-70
2022/12/22 04:56:29;;;;;;;4.88;4.55;;;;;;;;;;5306801;28;20020;-69
2022/12/22 04:59:00;;;;;;;6.45;4.65;;;;;;;;;;5306643;28;20035;-70
2022/12/22 05:01:32;;;;;;;12.70;5.57;;;;;;;;;;5305567;28;20012;-70
2022/12/22 05:04:03;;;;;;;96.90;7.28;;;;;;;;;;5306492;28;20016;-69
2022/12/22 05:06:34;;;;;;;73.07;6.60;;;;;;;;;;5305501;28;20035;-68
2022/12/22 05:09:05;;;;;;;5.70;5.20;;;;;;;;;;5306482;28;20020;-69
2022/12/22 05:11:36;;;;;;;5.22;4.82;;;;;;;;;;5306179;28;20020;-69
2022/12/22 05:14:08;;;;;;;6.18;5.68;;;;;;;;;;5305412;28;20447;-68
2022/12/22 05:16:39;;;;;;;6.05;5.55;;;;;;;;;;5305665;28;20531;-69
2022/12/22 05:19:10;;;;;;;5.72;5.30;;;;;;;;;;5306242;28;20394;-69
2022/12/22 05:21:41;;;;;;;5.65;5.25;;;;;;;;;;5305223;28;20438;-68
2022/12/22 05:24:12;;;;;;;5.53;5.05;;;;;;;;;;5306460;28;20027;-68
2022/12/22 05:26:43;;;;;;;5.15;4.75;;;;;;;;;;5305501;28;20027;-69
2022/12/22 05:29:15;;;;;;;5.63;5.22;;;;;;;;;;5305548;28;20529;-68
2022/12/22 05:31:46;;;;;;;5.00;4.60;;;;;;;;;;5305536;28;20410;-69
2022/12/22 05:34:17;;;;;;;4.78;4.47;;;;;;;;;;5306402;28;20414;-68
2022/12/22 05:36:48;;;;;;;6.60;4.85;;;;;;;;;;5304815;28;20024;-69
2022/12/22 05:39:19;;;;;;;4.97;4.57;;;;;;;;;;5306100;28;20040;-68
2022/12/22 05:41:50;;;;;;;6.00;4.40;;;;;;;;;;5304600;28;20024;-68
2022/12/22 05:44:22;;;;;;;7.45;4.35;;;;;;;;;;5305471;28;20118;-69
2022/12/22 05:46:53;;;;;;;10.23;3.47;;;;;;;;;;5305781;28;20098;-68
2022/12/22 05:49:24;;;;;;;8.75;3.97;;;;;;;;;;5304503;28;20094;-68
2022/12/22 05:51:56;;;;;;;13.98;4.25;;;;;;;;;;5305453;28;20055;-68
2022/12/22 05:54:27;;;;;;;4.28;3.13;;;;;;;;;;5305536;28;20402;-68
2022/12/22 05:56:58;;;;;;;6.06;2.90;;;;;;;;;;5304199;28;20028;-68
2022/12/22 05:59:29;;;;;;;7.80;3.45;;;;;;;;;;5305592;28;20016;-68
2022/12/22 06:02:00;;;;;;;15.60;3.75;;;;;;;;;;5305395;28;20024;-68
2022/12/22 06:04:32;;;;;;;5.78;3.17;;;;;;;;;;5304541;28;20116;-69
2022/12/22 06:07:03;;;;;;;5.07;3.15;;;;;;;;;;5305292;28;20024;-68
2022/12/22 06:09:34;;;;;;;8.05;3.15;;;;;;;;;;5305333;28;20103;-68
2022/12/22 06:12:06;;;;;;;5.70;3.45;;;;;;;;;;5304321;28;20028;-68
2022/12/22 06:14:37;;;;;;;5.43;3.72;;;;;;;;;;5305283;28;20043;-68
2022/12/22 06:17:08;;;;;;;4.00;3.70;;;;;;;;;;5304124;28;20082;-68
2022/12/22 06:19:39;;;;;;;4.82;4.43;;;;;;;;;;5304508;28;20093;-68
2022/12/22 06:22:11;;;;;;;5.13;4.70;;;;;;;;;;5305429;28;20460;-68
2022/12/22 06:24:42;;;;;;;5.57;5.10;;;;;;;;;;5303686;28;20103;-68
2022/12/22 06:27:13;;;;;;;6.53;5.95;;;;;;;;;;5305371;28;20748;-68
2022/12/22 06:29:44;;;;;;;7.72;7.03;;;;;;;;;;5304467;28;20065;-67
2022/12/22 06:32:16;;;;;;;8.52;7.60;;;;;;;;;;5304495;28;20024;-67
2022/12/22 06:34:47;;;;;;;10.25;9.27;;;;;;;;;;5304379;28;20020;-68
2022/12/22 06:37:18;;;;;;;10.18;9.18;;;;;;;;;;5304886;28;20384;-67
2022/12/22 06:39:49;;;;;;;12.68;11.40;;;;;;;;;;5303332;28;20123;-68
2022/12/22 06:45:10;;;;;;;13.73;12.07;;;;;;;;;;5303850;28;20052;-68
2022/12/22 06:47:42;;;;;;;15.52;13.05;;;;;;;;;;5303865;28;20028;-67
2022/12/22 06:50:13;;;;;;;15.80;13.95;;;;;;;;;;5304681;28;20448;-67
2022/12/22 06:52:44;;;;;;;17.88;13.02;;;;;;;;;;5302957;28;20020;-68
2022/12/22 06:55:15;;;;;;;18.15;14.02;;;;;;;;;;5304803;28;20019;-68
2022/12/22 06:57:46;;;;;;;19.38;13.90;;;;;;;;;;5303451;28;20042;-68
2022/12/22 07:00:18;;;;;;;19.48;14.40;;;;;;;;;;5303544;28;20364;-69
2022/12/22 07:02:49;;;;;;;18.90;14.35;;;;;;;;;;5303427;28;20038;-69
2022/12/22 07:05:20;;;;;;;19.20;14.77;;;;;;;;;;5303591;28;20024;-70
2022/12/22 07:07:52;;;;;;;18.60;15.00;;;;;;;;;;5301944;28;20467;-68
2022/12/22 07:10:56;;;;;;;18.17;14.38;;;;;;;;;;5303986;28;20016;-69
2022/12/22 07:13:22;;;;;;;18.52;14.35;;;;;;;;;;5302792;28;20051;-69
2022/12/22 07:15:53;;;;;;;;;;;;;;;;;;5303968;28;20394;-70
2022/12/22 07:18:25;;;;;;;17.23;12.98;;;;;;;;;;5303511;28;20019;-69
2022/12/22 07:20:56;;;;;;;17.55;13.27;;;;;;;;;;5302741;28;20016;-69
2022/12/22 07:23:28;;;;;;;17.27;13.73;;;;;;;;;;5303331;28;20357;-68
2022/12/22 07:25:59;;;;;;;18.65;14.43;;;;;;;;;;5303348;28;20052;-68
2022/12/22 07:28:37;;;;;;;17.50;14.13;;;;;;;;;;5302423;28;20529;-68
2022/12/22 07:31:09;;;;;;;19.87;14.83;;;;;;;;;;5303248;28;20089;-68
2022/12/22 07:33:40;;;;;;;20.13;14.55;;;;;;;;;;5303272;28;20051;-68
2022/12/22 07:36:18;;;;;;;18.08;14.05;;;;;;;;;;5302624;28;20034;-68
2022/12/22 07:38:50;;;;;;;18.47;14.83;;;;;;;;;;5302677;28;20336;-68
2022/12/22 07:44:11;;;;;;;18.90;13.88;;;;;;;;;;5303305;28;20084;-68
2022/12/22 07:46:42;;;;;;;20.40;15.13;;;;;;;;;;5300443;28;20353;-68
2022/12/22 07:52:03;;;;;;;20.90;15.82;;;;;;;;;;5302976;28;20040;-68
2022/12/22 07:54:35;;;;;;;20.88;15.88;;;;;;;;;;5302606;28;20012;-68
2022/12/22 07:57:06;;;;;;;21.48;16.13;;;;;;;;;;5301626;28;20030;-68
2022/12/22 07:59:37;;;;;;;22.48;16.30;;;;;;;;;;5302648;28;20028;-68
2022/12/22 08:02:10;;;;;;;24.58;18.08;;;;;;;;;;5302663;28;20026;-69
2022/12/22 08:04:41;;;;;;;24.75;17.52;;;;;;;;;;5301699;28;20016;-69
2022/12/22 08:07:12;;;;;;;28.56;19.28;;;;;;;;;;5302552;28;20463;-69
2022/12/22 08:09:43;;;;;;;27.75;19.67;;;;;;;;;;5301316;28;20580;-70
2022/12/22 08:12:14;;;;;;;30.15;19.65;;;;;;;;;;5302804;28;20023;-69
2022/12/22 08:14:47;;;;;;;27.23;18.58;;;;;;;;;;5302449;28;20020;-69
2022/12/22 08:17:18;;;;;;;26.20;18.45;;;;;;;;;;5301913;28;20422;-69
2022/12/22 08:19:49;;;;;;;29.04;18.90;;;;;;;;;;5301730;28;20028;-69
2022/12/22 08:22:23;;;;;;;26.33;18.15;;;;;;;;;;5302147;28;20016;-69
2022/12/22 08:24:55;;;;;;;29.73;19.55;;;;;;;;;;5301747;28;20459;-66
2022/12/22 08:27:29;;;;;;;29.83;18.35;;;;;;;;;;5296708;28;20210;-68
2022/12/22 08:30:00;;;;;;;27.58;18.52;;;;;;;;;;5293910;28;20039;-69
2022/12/22 08:32:32;;;;;;;28.67;19.02;;;;;;;;;;5300517;28;20058;-69
2022/12/22 08:35:05;;;;;;;28.27;18.27;;;;;;;;;;5301547;28;20372;-69
2022/12/22 08:37:40;;;;;;;27.50;18.15;;;;;;;;;;5300359;28;20039;-69
2022/12/22 08:40:13;;;;;;;27.30;17.50;;;;;;;;;;5301110;28;20008;-69
2022/12/22 08:42:45;;;;;;;25.65;17.98;;;;;;;;;;5301163;28;20359;-67
2022/12/22 08:45:16;;;;;;;25.83;16.90;;;;;;;;;;5299676;28;20047;-68
2022/12/22 08:47:47;;;;;;;22.25;16.75;;;;;;;;;;5300400;28;20017;-68
2022/12/22 08:50:18;;;;;;;25.63;17.25;;;;;;;;;;5301283;28;20028;-68
2022/12/22 08:52:50;;;;;;;26.67;17.88;;;;;;;;;;5299921;28;20455;-68
2022/12/22 08:55:21;;;;;;;25.00;17.92;;;;;;;;;;5301251;28;20024;-68
2022/12/22 08:57:52;;;;;;;30.98;19.14;;;;;;;;;;5300322;28;20351;-68
2022/12/22 09:00:23;;;;;;;30.95;20.48;;;;;;;;;;5299802;28;20016;-69
2022/12/22 09:02:54;;;;;;;25.83;17.25;;;;;;;;;;5301055;28;20452;-69
2022/12/22 09:05:25;;;;;;;26.55;17.75;;;;;;;;;;5300740;28;20024;-69
2022/12/22 09:07:57;;;;;;;26.40;18.13;;;;;;;;;;5300323;28;20248;-69
2022/12/22 09:10:28;;;;;;;25.88;17.88;;;;;;;;;;5300807;28;20008;-69
2022/12/22 09:12:59;;;;;;;29.67;18.70;;;;;;;;;;5300255;28;20024;-69
2022/12/22 09:15:30;;;;;;;29.73;19.70;;;;;;;;;;5302214;28;20142;-70
2022/12/22 09:18:01;;;;;;;28.90;18.35;;;;;;;;;;5301682;28;20032;-69
2022/12/22 09:20:33;;;;;;;28.63;18.65;;;;;;;;;;5301074;28;20023;-70
2022/12/22 09:23:04;;;;;;;25.27;16.55;;;;;;;;;;5301465;28;20172;-67
2022/12/22 09:25:35;;;;;;;26.70;17.90;;;;;;;;;;5301683;28;20024;-69
2022/12/22 09:28:06;;;;;;;26.45;17.80;;;;;;;;;;5301108;28;20031;-69
2022/12/22 09:30:38;;;;;;;29.33;17.67;;;;;;;;;;5301908;28;20016;-69
2022/12/22 09:33:09;;;;;;;29.33;18.73;;;;;;;;;;5305452;28;20024;-69
2022/12/22 09:35:40;;;;;;;29.52;18.55;;;;;;;;;;5304455;28;20429;-69
2022/12/22 09:38:12;;;;;;;25.33;18.38;;;;;;;;;;5306010;28;20105;-69
2022/12/22 09:40:43;;;;;;;27.33;18.50;;;;;;;;;;5305147;28;20012;-69
2022/12/22 09:43:15;;;;;;;25.08;17.40;;;;;;;;;;5305038;28;20069;-69
2022/12/22 09:45:47;;;;;;;24.92;17.20;;;;;;;;;;5305102;28;20419;-69
2022/12/22 09:48:18;;;;;;;26.67;17.88;;;;;;;;;;5305006;28;20024;-69
2022/12/22 09:50:49;;;;;;;27.80;18.40;;;;;;;;;;5304817;28;20044;-69
2022/12/22 09:53:21;;;;;;;27.38;19.70;;;;;;;;;;5305074;28;20035;-69
2022/12/22 09:55:53;;;;;;;29.05;20.35;;;;;;;;;;5304397;28;20020;-69
2022/12/22 09:58:24;;;;;;;29.98;21.08;;;;;;;;;;5305207;28;20110;-69
2022/12/22 10:01:19;;;;;;;28.60;19.45;;;;;;;;;;5305371;28;20106;-69
2022/12/22 10:04:13;;;;;;;30.30;18.58;;;;;;;;;;5292992;28;20040;-69
2022/12/22 10:06:55;;;;;;;23.35;17.13;;;;;;;;;;5304771;28;20023;-69
2022/12/22 10:09:28;;;;;;;27.48;18.90;;;;;;;;;;5304498;28;20538;-69
2022/12/22 10:12:01;;;;;;;28.75;17.33;;;;;;;;;;5305120;28;20491;-69
2022/12/22 10:14:34;;;;;;;25.48;17.02;;;;;;;;;;5305061;28;20035;-69
2022/12/22 10:17:14;;;;;;;23.52;15.25;;;;;;;;;;5304005;28;20016;-69
2022/12/22 10:19:46;;;;;;;23.30;14.80;;;;;;;;;;5304773;28;20032;-69
2022/12/22 10:22:20;;;;;;;20.58;13.48;;;;;;;;;;5305206;28;20043;-69
2022/12/22 10:24:52;;;;;;;20.75;13.43;;;;;;;;;;5303831;28;20142;-69
2022/12/22 10:27:25;;;;;;;19.92;12.50;;;;;;;;;;5304620;28;20099;-68
2022/12/22 10:30:15;;;;;;;17.45;11.63;;;;;;;;;;5304921;28;20402;-68
2022/12/22 10:33:04;;;;;;;17.88;12.15;;;;;;;;;;5304210;28;20788;-68
2022/12/22 10:35:56;;;;;;;16.88;10.85;;;;;;;;;;5304127;28;20084;-68
2022/12/22 10:38:28;;;;;;;18.63;10.93;;;;;;;;;;5302842;28;20040;-68
2022/12/22 10:41:13;;;;;;;19.23;11.88;;;;;;;;;;5304375;28;20032;-68
2022/12/22 10:44:05;;;;;;;15.52;9.57;;;;;;;;;;5303937;28;20466;-69
2022/12/22 10:46:41;;;;;;;16.17;10.75;;;;;;;;;;5303180;28;20452;-70
2022/12/22 10:49:15;;;;;;;16.77;11.25;;;;;;;;;;5304675;28;20020;-69
2022/12/22 10:51:54;;;;;;;16.42;10.88;;;;;;;;;;5302934;28;20035;-69
2022/12/22 10:54:30;;;;;;;19.88;11.40;;;;;;;;;;5304005;28;20099;-70
2022/12/22 10:57:13;;;;;;;19.25;12.10;;;;;;;;;;5304182;28;20020;-69
2022/12/22 10:59:49;;;;;;;18.70;10.45;;;;;;;;;;5302901;28;20024;-69
2022/12/22 11:02:20;;;;;;;18.75;11.73;;;;;;;;;;5304039;28;20024;-70
2022/12/22 11:04:52;;;;;;;22.40;12.57;;;;;;;;;;5303781;28;20012;-69
2022/12/22 11:07:23;;;;;;;14.43;10.05;;;;;;;;;;5303316;28;20005;-69
2022/12/22 11:09:55;;;;;;;17.27;9.93;;;;;;;;;;5303819;28;20371;-69
2022/12/22 11:12:34;;;;;;;14.85;8.93;;;;;;;;;;5302935;28;20087;-68
2022/12/22 11:15:34;;;;;;;14.75;9.82;;;;;;;;;;5303701;28;20035;-68
2022/12/22 11:18:20;;;;;;;22.65;15.70;;;;;;;;;;5289836;28;20040;-67
2022/12/22 11:21:10;;;;;;;19.60;15.25;;;;;;;;;;5302785;28;20024;-68
2022/12/22 11:23:41;;;;;;;21.92;15.57;;;;;;;;;;5303075;28;20032;-69
2022/12/22 11:26:26;;;;;;;19.85;15.80;;;;;;;;;;5303492;28;20028;-69
2022/12/22 11:29:21;;;;;;;21.20;15.70;;;;;;;;;;5303311;28;20256;-69
2022/12/22 11:31:59;;;;;;;20.98;16.17;;;;;;;;;;5303282;28;20016;-69
2022/12/22 11:34:49;;;;;;;23.27;16.27;;;;;;;;;;5302765;28;20469;-69
2022/12/22 11:37:26;;;;;;;23.17;16.08;;;;;;;;;;5303158;28;20020;-69
2022/12/22 11:40:05;;;;;;;23.42;16.77;;;;;;;;;;5303215;28;20104;-70
2022/12/22 11:42:42;;;;;;;22.60;17.63;;;;;;;;;;5302604;28;20063;-69
2022/12/22 11:45:32;;;;;;;25.27;17.83;;;;;;;;;;5303290;28;20189;-68
2022/12/22 11:48:24;;;;;;;20.13;16.02;;;;;;;;;;5302320;28;20027;-68
2022/12/22 11:50:58;;;;;;;24.25;17.40;;;;;;;;;;5302887;28;20024;-68
2022/12/22 11:53:42;;;;;;;22.60;17.38;;;;;;;;;;5301441;28;20527;-68
2022/12/22 11:56:24;;;;;;;19.38;15.52;;;;;;;;;;5302661;28;20020;-68
2022/12/22 11:59:03;;;;;;;21.65;15.70;;;;;;;;;;5302795;28;20032;-68
2022/12/22 12:01:57;;;;;;;20.30;14.95;;;;;;;;;;5302473;28;20020;-68
2022/12/22 12:04:28;;;;;;;18.33;14.60;;;;;;;;;;5302680;28;20398;-68
2022/12/22 12:07:20;;;;;;;18.70;13.25;;;;;;;;;;5302732;28;20046;-68
2022/12/22 12:10:03;;;;;;;17.63;13.45;;;;;;;;;;5301974;28;20278;-68
2022/12/22 12:12:35;;;;;;;17.90;12.40;;;;;;;;;;5302883;28;20020;-68
2022/12/22 12:15:06;;;;;;;15.00;10.85;;;;;;;;;;5302855;28;20023;-68
2022/12/22 12:17:56;;;;;;;14.18;10.85;;;;;;;;;;5301576;28;20285;-69
2022/12/22 12:20:37;;;;;;;14.43;10.32;;;;;;;;;;5302369;28;20092;-68
2022/12/22 12:23:09;;;;;;;13.25;10.15;;;;;;;;;;5301966;28;20020;-68
2022/12/22 12:25:43;;;;;;;12.48;10.02;;;;;;;;;;5302303;28;20031;-68
2022/12/22 12:28:14;;;;;;;13.02;10.25;;;;;;;;;;5302504;28;20091;-69
2022/12/22 12:30:48;;;;;;;11.60;8.85;;;;;;;;;;5301024;28;20169;-69
2022/12/22 12:33:25;;;;;;;12.20;9.45;;;;;;;;;;5302107;28;20270;-69
2022/12/22 12:36:12;;;;;;;13.52;9.20;;;;;;;;;;5301956;28;20035;-69
2022/12/22 12:38:43;;;;;;;15.55;10.40;;;;;;;;;;5300705;28;20052;-69
2022/12/22 12:41:37;;;;;;;8.85;7.95;;;;;;;;;;5302254;28;20039;-69
2022/12/22 12:44:11;;;;;;;12.50;9.27;;;;;;;;;;5301353;28;20637;-68
2022/12/22 12:46:42;;;;;;;13.30;9.32;;;;;;;;;;5302214;28;20028;-69
2022/12/22 12:49:43;;;;;;;15.50;9.27;;;;;;;;;;5302840;28;20531;-68
2022/12/22 12:52:14;;;;;;;11.98;9.88;;;;;;;;;;5288135;28;20281;-69
2022/12/22 12:54:46;;;;;;;12.15;9.65;;;;;;;;;;5301944;28;20379;-68
2022/12/22 12:57:22;;;;;;;14.52;10.50;;;;;;;;;;5302407;28;20016;-68
2022/12/22 12:59:54;;;;;;;14.82;11.05;;;;;;;;;;5301571;28;20084;-68
2022/12/22 13:02:26;;;;;;;12.43;10.93;;;;;;;;;;5302255;28;20039;-68
2022/12/22 13:05:01;;;;;;;14.73;11.55;;;;;;;;;;5301580;28;20032;-68
2022/12/22 13:07:58;;;;;;;13.50;11.63;;;;;;;;;;5305839;28;20055;-68
2022/12/22 13:10:38;;;;;;;16.55;12.05;;;;;;;;;;5274882;28;20032;-69
2022/12/22 13:13:30;;;;;;;15.07;13.25;;;;;;;;;;5305675;28;20012;-69
2022/12/22 13:16:01;;;;;;;17.15;13.65;;;;;;;;;;5291778;28;20060;-69
2022/12/22 13:18:32;;;;;;;15.85;13.80;;;;;;;;;;5306387;28;20450;-68
2022/12/22 13:21:21;;;;;;;17.90;14.18;;;;;;;;;;5305157;28;20028;-68
2022/12/22 13:23:55;;;;;;;15.40;13.43;;;;;;;;;;5305980;28;20273;-68
2022/12/22 13:26:27;;;;;;;17.58;13.25;;;;;;;;;;5305292;28;20450;-70
2022/12/22 13:29:21;;;;;;;17.05;13.32;;;;;;;;;;5306241;28;20115;-69
2022/12/22 13:31:58;;;;;;;13.25;10.07;;;;;;;;;;5294841;28;20278;-69
2022/12/22 13:34:38;;;;;;;11.15;9.18;;;;;;;;;;5305216;28;20045;-69
2022/12/22 13:37:15;;;;;;;11.88;8.27;;;;;;;;;;5305920;28;20020;-69
2022/12/22 13:40:04;;;;;;;10.23;9.20;;;;;;;;;;5305365;28;20017;-68
2022/12/22 13:42:37;;;;;;;8.27;7.43;;;;;;;;;;5305837;28;20024;-70
2022/12/22 13:45:22;;;;;;;8.63;7.80;;;;;;;;;;5305405;28;20076;-68
2022/12/22 13:47:54;;;;;;;11.18;7.53;;;;;;;;;;5304810;28;20016;-68
2022/12/22 13:50:27;;;;;;;8.82;7.85;;;;;;;;;;5305474;28;20034;-69
2022/12/22 13:52:59;;;;;;;10.48;8.15;;;;;;;;;;5305367;28;20028;-69
2022/12/22 13:55:31;;;;;;;9.02;7.38;;;;;;;;;;5304600;28;20016;-68
2022/12/22 13:58:20;;;;;;;9.73;7.20;;;;;;;;;;5305614;28;20055;-67
2022/12/22 14:01:02;;;;;;;10.48;7.70;;;;;;;;;;5305357;28;20115;-66
2022/12/22 14:03:33;;;;;;;9.85;8.38;;;;;;;;;;5304997;28;20123;-67
2022/12/22 14:06:22;;;;;;;9.38;7.60;;;;;;;;;;5305172;28;20031;-67
2022/12/22 14:09:07;;;;;;;9.05;7.57;;;;;;;;;;5304088;28;20027;-66
2022/12/22 14:11:40;;;;;;;9.93;7.57;;;;;;;;;;5304982;28;20440;-66
2022/12/22 14:14:19;;;;;;;10.18;8.00;;;;;;;;;;5305273;28;20114;-66
2022/12/22 14:16:50;;;;;;;;;;;;;;;;;;5303948;28;20069;-66
2022/12/22 14:19:22;;;;;;;8.60;6.50;;;;;;;;;;5305042;28;19916;-65
2022/12/22 14:22:00;;;;;;;7.80;6.43;;;;;;;;;;5304750;28;20035;-66
2022/12/22 14:24:33;;;;;;;8.57;6.78;;;;;;;;;;5304129;28;20020;-66
2022/12/22 14:27:05;;;;;;;9.98;6.68;;;;;;;;;;5304828;28;20016;-67
2022/12/22 14:29:36;;;;;;;8.63;6.07;;;;;;;;;;5304142;28;20028;-65
2022/12/22 14:32:08;;;;;;;7.63;6.45;;;;;;;;;;5304713;28;20178;-66
2022/12/22 14:34:40;;;;;;;7.32;5.80;;;;;;;;;;5304475;28;20390;-67
2022/12/22 14:37:11;;;;;;;6.03;5.50;;;;;;;;;;5303634;28;20023;-66
2022/12/22 14:39:42;;;;;;;7.88;4.90;;;;;;;;;;5304112;28;20032;-66
2022/12/22 14:42:13;;;;;;;7.00;5.48;;;;;;;;;;5304729;28;20471;-67
2022/12/22 14:44:45;;;;;;;8.02;5.07;;;;;;;;;;5303274;28;20500;-66
2022/12/22 14:47:20;;;;;;;7.43;5.47;;;;;;;;;;5304618;28;20024;-67
2022/12/22 14:50:03;;;;;;;9.02;5.55;;;;;;;;;;5304105;28;20111;-66
2022/12/22 14:52:40;;;;;;;6.22;5.05;;;;;;;;;;5303545;28;20387;-66
2022/12/22 14:55:23;;;;;;;7.25;5.53;;;;;;;;;;5304432;28;20032;-66
2022/12/22 14:57:57;;;;;;;8.13;4.78;;;;;;;;;;5303203;28;20426;-66
2022/12/22 15:00:33;;;;;;;7.75;5.25;;;;;;;;;;5303950;28;20016;-67
2022/12/22 15:03:23;;;;;;;6.20;5.07;;;;;;;;;;5304024;28;20020;-66
2022/12/22 15:05:54;;;;;;;6.30;5.47;;;;;;;;;;5303226;28;20027;-65
2022/12/22 15:08:35;;;;;;;8.23;6.32;;;;;;;;;;5303775;28;20380;-65
2022/12/22 15:11:14;;;;;;;8.95;6.18;;;;;;;;;;5303950;28;20028;-66
2022/12/22 15:13:45;;;;;;;;;;;;;;;;;;5303234;28;20019;-66
2022/12/22 15:16:18;;;;;;;6.13;4.60;;;;;;;;;;5303651;28;19904;-65
2022/12/22 15:18:50;;;;;;;6.57;5.03;;;;;;;;;;5302738;28;20043;-67
2022/12/22 15:21:22;;;;;;;7.20;5.53;;;;;;;;;;5303859;28;20136;-67
2022/12/22 15:23:53;;;;;;;9.50;6.18;;;;;;;;;;5303978;28;20029;-67
2022/12/22 15:26:24;;;;;;;6.45;5.85;;;;;;;;;;5302944;28;20024;-67
2022/12/22 15:28:55;;;;;;;8.62;6.44;;;;;;;;;;5302581;28;20027;-67
2022/12/22 15:31:26;;;;;;;7.15;6.13;;;;;;;;;;5299506;28;20061;-67
2022/12/22 15:33:59;;;;;;;6.47;5.88;;;;;;;;;;5302370;28;20024;-67
2022/12/22 15:36:30;;;;;;;7.93;5.25;;;;;;;;;;5303026;28;20107;-67
2022/12/22 15:39:01;;;;;;;6.25;5.50;;;;;;;;;;5302384;28;20134;-67
2022/12/22 15:41:33;;;;;;;5.60;4.63;;;;;;;;;;5302555;28;20044;-67
2022/12/22 15:44:04;;;;;;;7.80;5.12;;;;;;;;;;5302982;28;20127;-67
2022/12/22 15:46:35;;;;;;;5.07;4.57;;;;;;;;;;5302309;28;20020;-67
2022/12/22 15:49:18;;;;;;;5.63;5.03;;;;;;;;;;5302245;28;20103;-66
2022/12/22 15:51:54;;;;;;;4.93;3.90;;;;;;;;;;5302195;28;20051;-67
2022/12/22 15:54:26;;;;;;;5.15;4.63;;;;;;;;;;5300468;28;20016;-67
2022/12/22 15:56:58;;;;;;;7.53;4.07;;;;;;;;;;5302931;28;20012;-67
2022/12/22 15:59:29;;;;;;;4.40;2.95;;;;;;;;;;5302692;28;20487;-67
2022/12/22 16:02:01;;;;;;;4.07;3.72;;;;;;;;;;5302138;28;20016;-67
2022/12/22 16:04:32;;;;;;;3.80;3.17;;;;;;;;;;5302809;28;20016;-67
2022/12/22 16:07:03;;;;;;;5.75;3.70;;;;;;;;;;5302850;28;20016;-68
2022/12/22 16:09:39;;;;;;;4.35;3.35;;;;;;;;;;5302316;28;20467;-67
2022/12/22 16:12:11;;;;;;;4.28;3.50;;;;;;;;;;5303496;28;20542;-66
2022/12/22 16:14:44;;;;;;;4.60;4.07;;;;;;;;;;5301867;28;20372;-66
2022/12/22 16:17:20;;;;;;;4.40;3.20;;;;;;;;;;5302797;28;20016;-67
2022/12/22 16:19:51;;;;;;;3.33;3.03;;;;;;;;;;5302594;28;20036;-67
2022/12/22 16:22:32;;;;;;;4.38;3.92;;;;;;;;;;5302086;28;20023;-68
2022/12/22 16:25:06;;;;;;;4.00;3.70;;;;;;;;;;5302607;28;20383;-68
2022/12/22 16:27:37;;;;;;;5.00;4.43;;;;;;;;;;5302562;28;20031;-68
2022/12/22 16:30:15;;;;;;;4.80;4.40;;;;;;;;;;5301884;28;20452;-68
2022/12/22 16:32:46;;;;;;;4.43;4.13;;;;;;;;;;5302144;28;20032;-68
2022/12/22 16:35:19;;;;;;;5.28;4.78;;;;;;;;;;5302938;28;20456;-67
2022/12/22 16:37:53;;;;;;;4.68;4.25;;;;;;;;;;5301165;28;20036;-68
2022/12/22 16:40:25;;;;;;;4.53;4.13;;;;;;;;;;5305801;28;20351;-67
2022/12/22 16:42:59;;;;;;;4.68;4.28;;;;;;;;;;5308248;28;20024;-68
2022/12/22 16:45:31;;;;;;;4.47;4.03;;;;;;;;;;5309392;28;20051;-67
2022/12/22 16:48:09;;;;;;;4.65;4.25;;;;;;;;;;5309598;28;20355;-67
2022/12/22 16:50:43;;;;;;;5.88;5.28;;;;;;;;;;5307867;28;20023;-67
2022/12/22 16:53:14;;;;;;;5.35;4.93;;;;;;;;;;5309790;28;20095;-68
2022/12/22 16:55:45;;;;;;;4.75;4.28;;;;;;;;;;5309034;28;20094;-68
2022/12/22 16:58:16;;;;;;;4.88;4.47;;;;;;;;;;5308575;28;20046;-68
2022/12/22 17:00:47;;;;;;;5.43;4.95;;;;;;;;;;5309009;28;20027;-68
2022/12/22 17:03:23;;;;;;;5.68;5.18;;;;;;;;;;5309200;28;20024;-66
2022/12/22 17:05:57;;;;;;;6.53;5.32;;;;;;;;;;5308675;28;20009;-67
2022/12/22 17:08:31;;;;;;;6.95;5.75;;;;;;;;;;5308562;28;20027;-66
2022/12/22 17:11:04;;;;;;;6.07;5.47;;;;;;;;;;5308313;28;20016;-68
2022/12/22 17:13:36;;;;;;;9.35;5.85;;;;;;;;;;5309046;28;20518;-67
2022/12/22 17:16:16;;;;;;;9.18;5.93;;;;;;;;;;5309101;28;20095;-68
2022/12/22 17:18:48;;;;;;;13.43;7.35;;;;;;;;;;5307853;28;20028;-68
2022/12/22 17:21:20;;;;;;;12.43;7.00;;;;;;;;;;5309373;28;20391;-66
2022/12/22 17:23:53;;;;;;;9.15;6.88;;;;;;;;;;5308438;28;20026;-66
2022/12/22 17:26:24;;;;;;;13.30;7.68;;;;;;;;;;5308355;28;20523;-68
2022/12/22 17:28:56;;;;;;;13.57;6.18;;;;;;;;;;5309150;28;20107;-68
2022/12/22 17:31:27;;;;;;;13.32;6.78;;;;;;;;;;5309240;28;20023;-68
2022/12/22 17:33:59;;;;;;;13.63;6.55;;;;;;;;;;5308339;28;20023;-65
2022/12/22 17:36:34;;;;;;;14.15;6.97;;;;;;;;;;5308994;28;20012;-68
2022/12/22 17:39:09;;;;;;;16.90;6.65;;;;;;;;;;5308414;28;20119;-68
2022/12/22 17:41:40;;;;;;;16.15;7.10;;;;;;;;;;5308892;28;20038;-68
2022/12/22 17:44:19;;;;;;;17.75;6.63;;;;;;;;;;5309045;28;20047;-68
2022/12/22 17:46:50;;;;;;;19.58;6.45;;;;;;;;;;5307987;28;20027;-68
2022/12/22 17:49:21;;;;;;;14.50;6.03;;;;;;;;;;5309239;28;20016;-68
2022/12/22 17:51:52;;;;;;;21.45;6.75;;;;;;;;;;5306715;28;20024;-68
2022/12/22 17:54:25;;;;;;;17.65;5.95;;;;;;;;;;5304912;28;20031;-71
2022/12/22 17:57:00;;;;;;;20.27;6.13;;;;;;;;;;5305476;28;20043;-70
2022/12/22 17:59:31;;;;;;;16.83;5.43;;;;;;;;;;5305283;28;20077;-71
2022/12/22 18:02:02;;;;;;;15.05;4.78;;;;;;;;;;5304952;28;20020;-70
2022/12/22 18:04:34;;;;;;;14.10;4.78;;;;;;;;;;5305655;28;20085;-69
2022/12/22 18:07:05;;;;;;;15.45;4.55;;;;;;;;;;5305465;28;20020;-69
2022/12/22 18:09:36;;;;;;;17.33;4.35;;;;;;;;;;5304519;28;20073;-69
2022/12/22 18:12:15;;;;;;;16.05;5.15;;;;;;;;;;5305009;28;20530;-69
2022/12/22 18:14:47;;;;;;;14.68;4.32;;;;;;;;;;5304186;28;20027;-71
2022/12/22 18:17:23;;;;;;;13.50;4.70;;;;;;;;;;5305501;28;20008;-70
2022/12/22 18:19:54;;;;;;;19.70;5.80;;;;;;;;;;5304976;28;20059;-69
2022/12/22 18:22:27;;;;;;;22.05;4.80;;;;;;;;;;5304356;28;20432;-69
2022/12/22 18:24:59;;;;;;;22.70;4.95;;;;;;;;;;5304957;28;20024;-69
2022/12/22 18:27:30;;;;;;;23.73;6.43;;;;;;;;;;5304979;28;20471;-69
2022/12/22 18:30:06;;;;;;;22.58;6.05;;;;;;;;;;5303799;28;20498;-69
2022/12/22 18:32:39;;;;;;;23.05;5.80;;;;;;;;;;5304879;28;20418;-68
2022/12/22 18:35:10;;;;;;;23.63;5.15;;;;;;;;;;5304935;28;20020;-67
2022/12/22 18:37:42;;;;;;;27.38;6.00;;;;;;;;;;5303647;28;20374;-68
2022/12/22 18:40:19;;;;;;;24.67;6.97;;;;;;;;;;5304858;28;20036;-67
2022/12/22 18:42:51;;;;;;;25.42;6.55;;;;;;;;;;5303531;28;20031;-68
2022/12/22 18:45:23;;;;;;;27.48;5.97;;;;;;;;;;5304229;28;20101;-68
2022/12/22 18:47:55;;;;;;;31.90;7.80;;;;;;;;;;5304666;28;20031;-68
2022/12/22 18:50:28;;;;;;;25.08;5.90;;;;;;;;;;5303904;28;20032;-68
2022/12/22 18:53:01;;;;;;;26.58;6.75;;;;;;;;;;5304501;28;20047;-69
2022/12/22 18:55:32;;;;;;;27.88;6.40;;;;;;;;;;5304337;28;20067;-69